首页
METAR-TAF:

METAR-TAF

机场 :

臺灣桃園國際機場

臺北, 台湾

纬度: 25-05N, 经度: 121-13E, 海拔: 33米

当前天气观测

该预报发布于35分钟前的13:00 UTC
风速5节,风向东转东北
温度 21°C
湿度 94%
气压 1017 hPa
能见度10公里或以上
少量云层高于1200英尺
散云层高于8000英尺

METAR: RCTP 171300Z 06005KT 9999 FEW012 SCT080 21/20 Q1017 NOSIG RMK A3004

时间: 21:35 (13:35 UTC)

预报

该预报发布于2小时和35分钟前的11:00 UTC
预报有效从17日的 12点(UTC)到 18日的 18点(UTC)
风速5节,风向
能见度10公里或以上
少量云层高于800英尺
散云层高于1200英尺
多云层高于3200英尺
成为
从 17日的 12点(UTC)到 17日的 14点(UTC)
散云层高于800英尺
多云层高于1200英尺
多云层高于3000英尺
短暂存在
从 17日的 15点(UTC)到 17日的 23点(UTC)
能見度: 4000
散云层高于500英尺
多云层高于700英尺
多云层高于2000英尺
轻雾
成为
从 18日的 00点(UTC)到 18日的 02点(UTC)
少量云层高于1000英尺
多云层高于3200英尺
成为
从 18日的 09点(UTC)到 18日的 11点(UTC)
散云层高于700英尺
多云层高于1100英尺
多云层高于3000英尺
短暂存在
从 18日的 13点(UTC)到 18日的 18点(UTC)
风速13节,风向
能見度: 3200
散云层高于300英尺
多云层高于600英尺
多云层高于2000英尺
雨, 轻雾

TAF: RCTP 171100Z 1712/1818 09005KT 9999 FEW008 SCT012 BKN032 BECMG 1712/1714 SCT008 BKN012 BKN030 TEMPO 1715/1723 4000 BR SCT005 BKN007 BKN020 BECMG 1800/1802 FEW010 BKN032 BECMG 1809/1811 SCT007 BKN011 BKN030 TEMPO 1813/1818 35013KT 3200 RA BR SCT003 BKN006 BKN020

超过4000个机场的气象观测和天气预报(METAR&TAF报告)。

可查询的气象台以黄色和红色小点在地图上表示。

将鼠标移到小点上方,可查看气象台名称。

然后点击查看天气观测和预报。

如需切换地图:点击带黑十字的绿色按钮放大地图;点击带横线的绿色按钮缩小地图;或者点击绿色箭头查看邻近地区的地图。


METAR-TAF: